Radford, Virginia
Current Conditions -  °F | °C
As of 8:35 AM on Wednesday 22 Oct 2014 (Local Time) from KPSK Reporting Station
Overcast Overcast  
Wind Chill:   Ceiling: 1900
Heat Index:   Visibility: 10mi
Dew Point:   Wind: 6mph
Humidity: 81%   Direction: 330°NNW
Pressure: 30.1"   Gusts: NA
Location:  37.12°N, 80.59°W
Report Text: KPSK 221235Z AUTO 33005KT 10SM OVC019 08/05 A3010 RMK AO2 T00750045
Loading
Personal Weather Stations






























Interactive Weather Map
Tropical Storm Tracking
New forecast layout! Learn more

10-Day Weather Forecast

Advertisements
Track Severe Weather on mobile